Time;durP1;ratioP1;P1;durP2;ratioP2;P2;SDS_P1;SDS_P2;PMS_P1;PMS_P2;Temp;Humidity;BMP_temperature;BMP_pressure;BME280_temperature;BME280_humidity;BME280_pressure;Samples;Min_cycle;Max_cycle;Signal;HPM_P1;HPM_P2
2022/12/06 00:01:15;;;;;;;7.47;3.50;;;5.80;99.90;;;;;;5091532;28;20111;-69
2022/12/06 00:03:42;;;;;;;9.18;3.22;;;5.60;99.90;;;;;;5090255;28;20067;-69
2022/12/06 00:06:13;;;;;;;7.70;3.53;;;5.80;99.90;;;;;;5091719;28;20059;-69
2022/12/06 00:08:39;;;;;;;5.95;3.05;;;5.80;99.90;;;;;;5091416;28;20497;-69
2022/12/06 00:11:17;;;;;;;5.20;2.70;;;5.70;99.90;;;;;;5091528;28;20043;-69
2022/12/06 00:13:44;;;;;;;9.18;3.13;;;5.60;99.90;;;;;;5091621;28;20096;-69
2022/12/06 00:16:12;;;;;;;10.27;2.90;;;5.60;99.90;;;;;;5089900;28;20050;-69
2022/12/06 00:18:39;;;;;;;9.68;3.05;;;5.80;99.90;;;;;;5095403;28;20055;-69
2022/12/06 00:21:27;;;;;;;9.00;3.63;;;5.60;99.90;;;;;;5095573;28;20079;-69
2022/12/06 00:23:58;;;;;;;8.40;3.50;;;5.50;99.90;;;;;;5091292;28;20486;-69
2022/12/06 00:26:25;;;;;;;10.45;3.25;;;5.50;99.90;;;;;;5074168;28;20044;-69
2022/12/06 00:28:55;;;;;;;8.50;3.33;;;5.50;99.90;;;;;;5094597;28;20032;-69
2022/12/06 00:31:23;;;;;;;5.72;3.10;;;5.80;99.90;;;;;;5096521;28;20127;-69
2022/12/06 00:33:48;;;;;;;6.50;3.40;;;5.70;99.90;;;;;;5094663;28;20036;-69
2022/12/06 00:36:23;;;;;;;9.38;3.53;;;5.80;99.90;;;;;;5096408;28;20040;-69
2022/12/06 00:38:49;;;;;;;10.77;3.63;;;5.90;99.90;;;;;;5095233;28;20032;-69
2022/12/06 00:41:17;;;;;;;10.68;3.63;;;5.50;99.90;;;;;;5095066;28;20486;-69
2022/12/06 00:43:43;;;;;;;9.02;3.55;;;5.80;99.90;;;;;;5095133;28;20409;-69
2022/12/06 00:46:12;;;;;;;7.15;3.90;;;5.50;99.90;;;;;;5093906;28;20040;-69
2022/12/06 00:48:38;;;;;;;11.75;5.07;;;5.50;99.90;;;;;;5094934;28;20150;-69
2022/12/06 00:51:03;;;;;;;13.65;4.63;;;5.70;99.90;;;;;;5094872;28;20123;-69
2022/12/06 00:53:29;;;;;;;9.50;4.70;;;5.60;99.90;;;;;;5094593;28;20043;-69
2022/12/06 00:55:55;;;;;;;12.07;4.53;;;5.80;99.90;;;;;;5095008;28;20028;-68
2022/12/06 00:58:21;;;;;;;15.35;5.43;;;5.40;99.90;;;;;;5094664;28;20489;-69
2022/12/06 01:00:46;;;;;;;10.05;4.65;;;5.70;99.90;;;;;;5093419;28;20053;-69
2022/12/06 01:03:12;;;;;;;14.27;4.22;;;5.50;99.90;;;;;;5087215;28;20458;-69
2022/12/06 01:05:42;;;;;;;6.75;3.90;;;5.40;99.90;;;;;;5094727;28;20089;-69
2022/12/06 01:08:08;;;;;;;10.70;4.22;;;5.80;99.90;;;;;;5094067;28;20118;-69
2022/12/06 01:10:35;;;;;;;9.43;3.92;;;5.30;99.90;;;;;;5094678;28;20128;-69
2022/12/06 01:13:01;;;;;;;9.43;3.30;;;5.60;99.90;;;;;;5094347;28;20040;-69
2022/12/06 01:15:26;;;;;;;8.13;3.40;;;5.50;99.90;;;;;;5093112;28;20036;-68
2022/12/06 01:17:52;;;;;;;7.50;3.28;;;5.70;99.90;;;;;;5092915;28;20101;-69
2022/12/06 01:20:17;;;;;;;9.30;3.03;;;5.70;99.90;;;;;;5094460;28;20498;-69
2022/12/06 01:22:43;;;;;;;5.97;2.60;;;5.50;99.90;;;;;;5094061;28;20046;-69
2022/12/06 01:25:09;;;;;;;8.25;3.13;;;5.40;99.90;;;;;;5094504;28;20036;-68
2022/12/06 01:27:34;;;;;;;9.15;3.38;;;5.40;99.90;;;;;;5094156;28;20032;-69
2022/12/06 01:30:00;;;;;;;5.45;2.67;;;5.50;99.90;;;;;;5093011;28;20123;-69
2022/12/06 01:32:28;;;;;;;7.38;2.90;;;5.30;99.90;;;;;;5092699;28;20523;-69
2022/12/06 01:34:53;;;;;;;6.95;3.08;;;5.30;99.90;;;;;;5094162;28;20052;-69
2022/12/06 01:37:19;;;;;;;6.35;2.70;;;5.50;99.90;;;;;;5092298;28;20429;-69
2022/12/06 01:39:44;;;;;;;4.05;2.30;;;5.20;99.90;;;;;;5092267;28;20468;-69
2022/12/06 01:42:15;;;;;;;7.85;2.30;;;5.20;99.90;;;;;;5092597;28;20048;-69
2022/12/06 01:44:46;;;;;;;6.22;2.38;;;5.20;99.90;;;;;;5092358;28;20493;-69
2022/12/06 01:47:19;;;;;;;4.10;2.10;;;5.50;99.90;;;;;;5092125;28;20097;-69
2022/12/06 01:49:48;;;;;;;;;;;5.60;99.90;;;;;;5092981;28;20036;-69
2022/12/06 01:52:15;;;;;;;3.97;1.80;;;5.40;99.90;;;;;;5092499;28;20369;-69
2022/12/06 01:54:41;;;;;;;7.20;1.90;;;5.40;99.90;;;;;;5092257;28;20036;-69
2022/12/06 01:57:09;;;;;;;4.07;1.98;;;5.30;99.90;;;;;;5093580;28;20040;-69
2022/12/06 01:59:36;;;;;;;5.38;1.58;;;5.20;99.90;;;;;;5093356;28;20036;-69
2022/12/06 02:02:02;;;;;;;5.50;2.08;;;5.30;99.90;;;;;;5093376;28;20066;-69
2022/12/06 02:04:30;;;;;;;2.90;1.52;;;5.30;99.90;;;;;;5093309;28;20036;-69
2022/12/06 02:06:58;;;;;;;6.65;2.85;;;5.40;99.90;;;;;;5091956;28;20452;-69
2022/12/06 02:09:26;;;;;;;3.08;1.40;;;5.40;99.90;;;;;;5091998;28;20040;-69
2022/12/06 02:11:51;;;;;;;3.90;1.48;;;5.50;99.90;;;;;;5091990;28;20544;-69
2022/12/06 02:14:23;;;;;;;1.98;1.45;;;5.20;99.90;;;;;;5093177;28;20040;-71
2022/12/06 02:17:07;;;;;;;3.92;1.35;;;5.30;99.90;;;;;;5093375;28;20058;-68
2022/12/06 02:20:02;;;;;;;4.95;1.85;;;5.50;99.90;;;;;;5093241;28;20054;-69
2022/12/06 02:23:06;;;;;;;2.28;1.30;;;5.50;99.90;;;;;;5092764;28;20040;-68
2022/12/06 02:26:01;;;;;;;4.70;1.30;;;5.50;99.90;;;;;;5093262;28;20032;-68
2022/12/06 02:29:01;;;;;;;4.38;1.60;;;5.20;99.90;;;;;;5091751;28;20485;-68
2022/12/06 02:31:36;;;;;;;2.97;1.58;;;5.20;99.90;;;;;;5093163;28;20402;-68
2022/12/06 02:34:26;;;;;;;2.72;1.33;;;5.20;99.90;;;;;;5092500;28;20485;-68
2022/12/06 02:37:17;;;;;;;3.83;1.55;;;5.40;99.90;;;;;;5092554;28;20523;-68
2022/12/06 02:40:00;;;;;;;4.30;1.27;;;5.30;99.90;;;;;;5091193;28;20043;-68
2022/12/06 02:42:40;;;;;;;3.10;1.80;;;5.40;99.90;;;;;;5085107;28;20498;-68
2022/12/06 02:45:13;;;;;;;4.53;1.73;;;5.20;99.90;;;;;;5092616;28;20044;-68
2022/12/06 02:47:40;;;;;;;3.28;1.95;;;5.10;99.90;;;;;;5074461;28;20032;-68
2022/12/06 02:50:11;;;;;;;2.95;1.67;;;5.10;99.90;;;;;;5090576;28;20048;-68
2022/12/06 02:52:40;;;;;;;4.82;1.63;;;5.50;99.90;;;;;;5091003;28;20613;-68
2022/12/06 02:55:07;;;;;;;6.40;1.73;;;5.10;99.90;;;;;;5092525;28;20201;-68
2022/12/06 02:57:53;;;;;;;5.03;1.98;;;5.50;99.90;;;;;;5092355;28;20047;-68
2022/12/06 03:00:39;;;;;;;4.43;1.88;;;5.30;99.90;;;;;;5091199;28;20086;-68
2022/12/06 03:03:51;;;;;;;4.93;2.33;;;5.20;99.90;;;;;;5092169;28;20044;-69
2022/12/06 03:06:19;;;;;;;3.65;1.75;;;5.50;99.90;;;;;;5092570;28;20048;-69
2022/12/06 03:09:08;;;;;;;3.95;2.05;;;5.40;99.90;;;;;;5091091;28;20044;-68
2022/12/06 03:11:43;;;;;;;3.67;1.80;;;5.30;99.90;;;;;;5092438;28;20059;-68
2022/12/06 03:14:16;;;;;;;2.88;1.88;;;5.20;99.90;;;;;;5092017;28;20039;-69
2022/12/06 03:16:58;;;;;;;4.45;1.58;;;5.10;99.90;;;;;;5092245;28;20512;-68
2022/12/06 03:19:26;;;;;;;3.67;1.85;;;5.50;99.90;;;;;;5092234;28;20087;-69
2022/12/06 03:22:06;;;;;;;5.07;2.20;;;5.40;99.90;;;;;;5092021;28;20036;-69
2022/12/06 03:24:36;;;;;;;7.47;2.13;;;5.50;99.90;;;;;;5091896;28;20390;-68
2022/12/06 03:27:08;;;;;;;3.85;1.63;;;5.50;99.90;;;;;;5091687;28;20039;-69
2022/12/06 03:29:39;;;;;;;3.58;2.20;;;5.60;99.90;;;;;;5092273;28;20047;-69
2022/12/06 03:32:06;;;;;;;3.08;2.05;;;5.60;99.90;;;;;;5091978;28;20439;-69
2022/12/06 03:34:37;;;;;;;3.67;2.00;;;5.70;99.90;;;;;;5089322;28;20044;-69
2022/12/06 03:37:04;;;;;;;4.20;1.95;;;5.30;99.90;;;;;;5090693;28;20036;-70
2022/12/06 03:39:42;;;;;;;5.50;2.97;;;5.50;99.90;;;;;;5109470;22;20490;-69
2022/12/06 03:42:09;;;;;;;3.75;2.17;;;5.40;99.90;;;;;;5052060;28;20316;-69
2022/12/06 03:44:35;;;;;;;4.00;2.15;;;5.30;99.90;;;;;;5068910;28;20044;-69
2022/12/06 03:47:13;;;;;;;4.72;2.35;;;5.70;99.90;;;;;;5051563;28;20044;-69
2022/12/06 03:49:44;;;;;;;8.00;2.40;;;5.30;99.90;;;;;;5055106;28;20036;-69
2022/12/06 03:52:10;;;;;;;8.25;2.53;;;5.50;99.90;;;;;;5068702;28;20405;-69
2022/12/06 03:54:38;;;;;;;4.20;2.17;;;5.60;99.90;;;;;;5068825;28;20033;-70
2022/12/06 03:57:04;;;;;;;8.88;2.67;;;5.30;99.90;;;;;;5070472;28;20419;-69
2022/12/06 03:59:30;;;;;;;6.15;2.50;;;5.30;99.90;;;;;;5070202;28;20502;-69
2022/12/06 04:01:55;;;;;;;3.13;1.83;;;5.30;99.90;;;;;;5072330;28;20084;-70
2022/12/06 04:04:21;;;;;;;4.95;2.03;;;5.30;99.90;;;;;;5073797;28;20498;-69
2022/12/06 04:06:47;;;;;;;5.15;2.15;;;5.70;99.90;;;;;;5074097;28;20040;-69
2022/12/06 04:11:56;;;;;;;4.18;2.10;;;5.30;99.90;;;;;;5073887;28;20048;-69
2022/12/06 04:14:22;;;;;;;3.53;1.52;;;5.50;99.90;;;;;;5073510;28;20501;-69
2022/12/06 04:19:31;;;;;;;10.13;2.28;;;5.60;99.90;;;;;;5074823;28;20083;-70
2022/12/06 04:24:41;;;;;;;3.60;1.88;;;5.30;99.90;;;;;;5073416;28;20067;-70
2022/12/06 04:40:47;;;;;;;9.00;2.20;;;5.20;99.90;;;;;;5074401;28;20083;-69
2022/12/06 04:45:57;;;;;;;3.88;2.10;;;5.20;99.90;;;;;;5074925;28;20047;-70
2022/12/06 04:48:22;;;;;;;4.95;2.22;;;5.20;99.90;;;;;;5073564;28;20048;-69
2022/12/06 04:50:49;;;;;;;3.95;1.95;;;5.30;99.90;;;;;;5073265;28;20040;-70
2022/12/06 04:53:14;;;;;;;4.40;2.30;;;5.10;99.90;;;;;;5074472;28;20040;-69
2022/12/06 04:55:47;;;;;;;3.85;2.20;;;5.30;99.90;;;;;;5056670;28;20040;-70
2022/12/06 04:58:14;;;;;;;8.70;2.55;;;5.20;99.90;;;;;;5073547;28;20055;-69
2022/12/06 05:00:43;;;;;;;5.43;2.80;;;5.30;99.90;;;;;;5074230;28;20379;-69
2022/12/06 05:03:10;;;;;;;3.80;1.77;;;4.90;99.90;;;;;;5072997;28;20663;-69
2022/12/06 05:05:36;;;;;;;5.07;2.13;;;5.20;99.90;;;;;;5072872;28;20082;-69
2022/12/06 05:08:01;;;;;;;4.32;2.30;;;5.30;99.90;;;;;;5073249;28;20048;-69
2022/12/06 05:10:27;;;;;;;8.05;2.28;;;5.20;99.90;;;;;;5074140;28;20136;-69
2022/12/06 05:12:52;;;;;;;4.93;2.20;;;5.10;99.90;;;;;;5071911;28;20041;-69
2022/12/06 05:15:18;;;;;;;3.22;2.10;;;5.20;99.90;;;;;;5074305;28;20043;-69
2022/12/06 05:17:43;;;;;;;5.70;2.30;;;5.00;99.90;;;;;;5072790;28;20494;-69
2022/12/06 05:20:09;;;;;;;6.65;2.17;;;5.10;99.90;;;;;;5074131;28;20036;-70
2022/12/06 05:22:35;;;;;;;9.32;2.75;;;4.80;99.90;;;;;;5072401;28;20040;-69
2022/12/06 05:25:00;;;;;;;5.82;1.92;;;5.10;99.90;;;;;;5073061;28;20498;-70
2022/12/06 05:27:26;;;;;;;6.32;2.17;;;4.70;99.90;;;;;;5072416;28;20033;-69
2022/12/06 05:29:51;;;;;;;4.63;1.98;;;4.70;99.90;;;;;;5055688;28;20140;-70
2022/12/06 05:32:17;;;;;;;5.10;1.73;;;4.70;99.90;;;;;;5073819;28;20051;-69
2022/12/06 05:34:42;;;;;;;2.53;1.67;;;4.70;99.90;;;;;;5073737;28;20041;-71
2022/12/06 05:37:08;;;;;;;6.03;2.00;;;4.50;99.90;;;;;;5072680;28;20040;-70
2022/12/06 05:39:34;;;;;;;2.85;1.75;;;4.50;99.90;;;;;;5072274;28;20356;-70
2022/12/06 05:41:59;;;;;;;4.57;2.20;;;4.70;99.90;;;;;;5072337;28;20043;-70
2022/12/06 05:44:25;;;;;;;2.83;1.70;;;4.60;99.90;;;;;;5072048;28;20555;-70
2022/12/06 05:46:50;;;;;;;6.28;2.90;;;4.30;99.90;;;;;;5072016;28;20032;-71
2022/12/06 05:49:16;;;;;;;6.32;2.35;;;4.30;99.90;;;;;;5072042;28;20044;-70
2022/12/06 05:51:41;;;;;;;5.40;3.03;;;4.30;99.90;;;;;;5072358;28;20462;-71
2022/12/06 05:54:07;;;;;;;5.10;2.00;;;4.40;99.90;;;;;;5071841;28;20071;-71
2022/12/06 05:56:32;;;;;;;3.70;1.73;;;4.60;99.90;;;;;;5071978;28;20090;-70
2022/12/06 05:58:58;;;;;;;7.63;1.65;;;4.20;99.90;;;;;;5071972;28;20048;-70
2022/12/06 06:01:23;;;;;;;3.38;2.40;;;4.20;99.90;;;;;;5073072;28;20455;-70
2022/12/06 06:03:49;;;;;;;4.65;3.10;;;4.20;99.90;;;;;;5072937;28;20189;-71
2022/12/06 06:06:16;;;;;;;4.88;2.97;;;4.60;99.90;;;;;;5073096;28;20131;-71
2022/12/06 06:08:41;;;;;;;4.40;3.15;;;4.30;99.90;;;;;;5055509;28;20409;-71
2022/12/06 06:11:07;;;;;;;7.50;3.22;;;4.50;99.90;;;;;;5072490;28;20119;-71
2022/12/06 06:13:33;;;;;;;5.15;2.85;;;4.40;99.90;;;;;;5071594;28;20041;-70
2022/12/06 06:15:58;;;;;;;5.35;3.17;;;4.30;99.90;;;;;;5071551;28;20494;-71
2022/12/06 06:18:24;;;;;;;3.60;2.42;;;4.20;99.90;;;;;;5071669;28;20044;-71
2022/12/06 06:20:56;;;;;;;5.78;3.10;;;4.20;99.90;;;;;;5071137;28;20032;-70
2022/12/06 06:23:23;;;;;;;4.57;3.13;;;4.10;99.90;;;;;;5071208;28;20047;-70
2022/12/06 06:25:49;;;;;;;6.05;2.63;;;4.30;99.90;;;;;;5071419;28;20170;-71
2022/12/06 06:28:15;;;;;;;3.58;2.45;;;4.10;99.90;;;;;;5071679;28;20036;-71
2022/12/06 06:30:41;;;;;;;3.22;2.28;;;4.40;99.90;;;;;;5071228;28;20059;-71
2022/12/06 06:33:07;;;;;;;4.97;2.05;;;4.10;99.90;;;;;;5070849;28;20090;-70
2022/12/06 06:35:33;;;;;;;4.63;2.10;;;4.20;99.90;;;;;;5072558;28;20052;-71
2022/12/06 06:37:58;;;;;;;2.80;1.55;;;4.20;99.90;;;;;;5071227;28;20128;-71
2022/12/06 06:40:24;;;;;;;3.00;1.83;;;3.90;99.90;;;;;;5070861;28;20048;-71
2022/12/06 06:42:49;;;;;;;2.83;1.83;;;4.00;99.90;;;;;;5070809;28;20123;-71
2022/12/06 06:45:15;;;;;;;4.55;2.55;;;4.00;99.90;;;;;;5071274;28;20037;-71
2022/12/06 06:47:40;;;;;;;7.40;2.63;;;3.90;99.90;;;;;;5071102;28;20482;-70
2022/12/06 06:50:07;;;;;;;8.50;2.60;;;4.20;99.90;;;;;;5072299;28;20039;-71
2022/12/06 06:52:33;;;;;;;5.97;2.35;;;3.90;99.90;;;;;;5070454;28;20059;-71
2022/12/06 06:54:58;;;;;;;7.35;2.95;;;4.30;99.90;;;;;;5070852;28;20041;-70
2022/12/06 06:57:24;;;;;;;5.13;2.67;;;3.90;99.90;;;;;;5071241;28;20040;-71
2022/12/06 06:59:49;;;;;;;4.97;2.75;;;4.10;99.90;;;;;;5070559;28;20517;-71
2022/12/06 07:02:16;;;;;;;5.97;3.28;;;4.20;99.90;;;;;;5070714;28;20090;-71
2022/12/06 07:04:43;;;;;;;7.57;2.97;;;4.00;99.90;;;;;;5070800;28;20120;-71
2022/12/06 07:07:09;;;;;;;5.75;3.45;;;4.20;99.90;;;;;;5070821;28;20040;-70
2022/12/06 07:09:35;;;;;;;4.82;3.05;;;3.90;99.90;;;;;;5070276;28;20506;-71
2022/12/06 07:12:01;;;;;;;4.57;2.80;;;4.00;99.90;;;;;;5070926;28;20095;-71
2022/12/06 07:14:27;;;;;;;7.28;2.60;;;4.10;99.90;;;;;;5071816;28;20639;-70
2022/12/06 07:16:52;;;;;;;10.13;3.08;;;4.00;99.90;;;;;;5070490;28;20044;-70
2022/12/06 07:19:18;;;;;;;4.05;2.90;;;4.00;99.90;;;;;;5070331;28;20066;-70
2022/12/06 07:21:43;;;;;;;7.00;2.85;;;3.90;99.90;;;;;;5070412;28;20037;-70
2022/12/06 07:24:09;;;;;;;4.40;2.85;;;3.80;99.90;;;;;;5071242;28;20045;-70
2022/12/06 07:26:35;;;;;;;6.47;3.00;;;3.70;99.90;;;;;;5070775;28;20047;-70
2022/12/06 07:29:01;;;;;;;5.85;2.85;;;3.80;99.90;;;;;;5071499;28;20047;-70
2022/12/06 07:31:28;;;;;;;3.63;2.45;;;3.60;99.90;;;;;;5070055;28;20044;-70
2022/12/06 07:33:57;;;;;;;7.97;3.08;;;3.70;99.90;;;;;;5067097;28;20048;-70
2022/12/06 07:36:23;;;;;;;5.18;2.80;;;3.90;99.90;;;;;;5071135;28;20050;-70
2022/12/06 07:38:55;;;;;;;6.35;3.30;;;3.60;99.90;;;;;;5070253;28;20040;-71
2022/12/06 07:47:04;;;;;;;6.88;4.18;;;3.90;99.90;;;;;;5070315;28;20080;-71
2022/12/06 07:49:30;;;;;;;7.57;4.00;;;3.80;99.90;;;;;;5070127;28;20072;-71
2022/12/06 07:51:56;;;;;;;7.80;4.07;;;3.80;99.90;;;;;;5070658;28;20485;-70
2022/12/06 07:54:23;;;;;;;6.80;4.32;;;3.80;99.90;;;;;;5069810;28;20124;-71
2022/12/06 07:56:48;;;;;;;5.63;4.18;;;3.70;99.90;;;;;;5069434;28;20056;-71
2022/12/06 07:59:14;;;;;;;9.85;3.63;;;3.60;99.90;;;;;;5070175;28;20410;-71
2022/12/06 08:01:40;;;;;;;7.53;3.72;;;3.80;99.90;;;;;;5070202;28;20040;-70
2022/12/06 08:04:06;;;;;;;20.50;5.30;;;3.60;99.90;;;;;;5070086;28;20050;-71
2022/12/06 08:06:33;;;;;;;311.70;43.58;;;3.50;99.90;;;;;;5070244;28;20044;-70
2022/12/06 08:08:59;;;;;;;124.15;19.45;;;3.60;99.90;;;;;;5053652;28;20041;-70
2022/12/06 08:11:25;;;;;;;22.40;4.75;;;3.60;99.90;;;;;;5070149;28;20071;-70
2022/12/06 08:13:51;;;;;;;6.45;3.53;;;3.90;99.90;;;;;;5069732;28;20082;-71
2022/12/06 08:16:17;;;;;;;5.28;3.10;;;3.60;99.90;;;;;;5070100;28;20056;-70
2022/12/06 08:18:43;;;;;;;4.80;2.95;;;3.60;99.90;;;;;;5070084;28;20048;-70
2022/12/06 08:21:09;;;;;;;6.32;3.22;;;4.00;99.90;;;;;;5071158;28;20157;-70
2022/12/06 08:23:35;;;;;;;7.85;3.03;;;3.60;99.90;;;;;;5069594;28;20048;-70
2022/12/06 08:26:04;;;;;;;4.78;3.15;;;4.00;99.90;;;;;;5070063;28;20435;-70
2022/12/06 08:28:30;;;;;;;4.47;2.95;;;3.70;99.90;;;;;;5071126;28;20167;-70
2022/12/06 08:30:56;;;;;;;5.55;3.53;;;3.90;99.90;;;;;;5071366;28;20045;-70
2022/12/06 08:33:22;;;;;;;5.95;3.30;;;4.00;99.90;;;;;;5069671;28;20063;-70
2022/12/06 08:35:49;;;;;;;4.93;3.00;;;4.20;99.90;;;;;;5069821;28;20051;-70
2022/12/06 08:38:16;;;;;;;7.85;3.75;;;3.90;99.90;;;;;;5071175;28;20116;-69
2022/12/06 08:40:42;;;;;;;4.97;2.67;;;4.20;99.90;;;;;;5070864;28;20068;-71
2022/12/06 08:43:08;;;;;;;8.10;3.60;;;3.90;99.90;;;;;;5069456;28;20106;-70
2022/12/06 08:45:33;;;;;;;5.13;3.17;;;4.20;99.90;;;;;;5069720;28;20064;-70
2022/12/06 08:48:00;;;;;;;4.45;2.63;;;4.20;99.90;;;;;;5069163;28;20033;-70
2022/12/06 08:50:25;;;;;;;6.50;3.17;;;4.40;99.90;;;;;;5073616;28;20079;-70
2022/12/06 08:52:51;;;;;;;5.13;3.15;;;4.10;99.90;;;;;;5073409;28;20068;-70
2022/12/06 08:55:16;;;;;;;11.57;6.07;;;4.50;99.90;;;;;;5073391;28;20036;-70
2022/12/06 08:57:42;;;;;;;7.45;3.30;;;4.20;99.90;;;;;;5073127;28;20064;-70
2022/12/06 09:00:08;;;;;;;6.88;3.67;;;4.60;99.90;;;;;;5072999;28;20106;-70
2022/12/06 09:02:34;;;;;;;5.43;3.05;;;4.30;99.90;;;;;;5072701;28;20119;-71
2022/12/06 09:04:59;;;;;;;9.63;3.72;;;4.70;99.90;;;;;;5072914;28;20120;-69
2022/12/06 09:07:25;;;;;;;9.57;3.85;;;4.70;99.90;;;;;;5072918;28;20044;-69
2022/12/06 09:09:53;;;;;;;5.10;3.17;;;4.30;99.90;;;;;;5072880;28;20047;-69
2022/12/06 09:12:19;;;;;;;6.65;2.92;;;4.40;99.90;;;;;;5072658;28;20033;-69
2022/12/06 09:14:44;;;;;;;7.05;3.20;;;4.50;99.90;;;;;;5072528;28;20044;-69
2022/12/06 09:17:10;;;;;;;10.18;3.38;;;4.90;99.90;;;;;;5073043;28;20513;-69
2022/12/06 09:19:36;;;;;;;4.45;3.25;;;4.80;99.90;;;;;;5055437;28;20071;-69
2022/12/06 09:22:01;;;;;;;5.85;3.40;;;4.90;99.90;;;;;;5072724;28;20037;-69
2022/12/06 09:24:27;;;;;;;5.38;3.17;;;4.80;99.90;;;;;;5072070;28;20610;-69
2022/12/06 09:26:52;;;;;;;5.93;2.88;;;5.00;99.90;;;;;;5056244;28;20044;-70
2022/12/06 09:29:18;;;;;;;7.03;3.38;;;4.90;99.90;;;;;;5072429;28;20029;-70
2022/12/06 09:31:44;;;;;;;5.35;2.75;;;4.50;99.90;;;;;;5072893;28;20106;-70
2022/12/06 09:34:11;;;;;;;5.72;3.10;;;4.70;99.90;;;;;;5072323;28;20033;-70
2022/12/06 09:37:05;;;;;;;7.53;2.90;;;4.80;99.90;;;;;;5071968;28;20076;-69
2022/12/06 09:39:33;;;;;;;;;;;4.60;99.90;;;;;;5067755;28;20490;-69
2022/12/06 09:42:31;;;;;;;6.55;3.40;;;4.70;99.90;;;;;;5126205;22;19919;-72
2022/12/06 09:45:15;;;;;;;5.00;3.03;;;4.70;99.90;;;;;;5114202;28;20562;-73
2022/12/06 09:48:07;;;;;;;5.65;3.30;;;4.70;99.90;;;;;;5113203;28;20039;-74
2022/12/06 09:50:42;;;;;;;6.93;3.50;;;4.40;99.90;;;;;;5113391;28;20184;-72
2022/12/06 09:53:30;;;;;;;8.73;4.13;;;5.00;99.90;;;;;;5093395;28;20063;-72
2022/12/06 09:56:34;;;;;;;8.10;3.42;;;4.60;99.90;;;;;;5092365;28;20071;-72
2022/12/06 09:59:13;;;;;;;4.47;3.13;;;4.90;99.90;;;;;;5092043;28;20530;-74
2022/12/06 10:02:13;;;;;;;9.02;4.00;;;4.60;99.90;;;;;;5093378;28;20059;-72
2022/12/06 10:04:54;;;;;;;6.03;3.17;;;5.10;99.90;;;;;;5084745;28;20068;-72
2022/12/06 10:07:42;;;;;;;4.18;3.20;;;4.70;99.90;;;;;;5093400;28;20129;-72
2022/12/06 10:10:32;;;;;;;5.53;3.10;;;5.00;99.90;;;;;;5093573;28;20040;-72
2022/12/06 10:13:26;;;;;;;8.52;3.08;;;4.80;99.90;;;;;;5091732;28;20036;-72
2022/12/06 10:16:06;;;;;;;7.35;3.58;;;5.00;99.90;;;;;;5091945;28;20039;-72
2022/12/06 10:18:42;;;;;;;6.55;4.63;;;5.00;99.90;;;;;;5091754;28;20032;-72
2022/12/06 10:21:38;;;;;;;7.60;3.38;;;5.10;99.90;;;;;;5088861;28;20044;-71
2022/12/06 10:24:48;;;;;;;5.97;3.05;;;5.10;99.90;;;;;;5091694;28;20044;-71
2022/12/06 10:27:36;;;;;;;6.15;3.22;;;5.30;99.90;;;;;;5093159;28;20394;-72
2022/12/06 10:30:11;;;;;;;7.43;3.50;;;5.10;99.90;;;;;;5093272;28;20405;-72
2022/12/06 10:33:08;;;;;;;4.85;3.08;;;5.40;99.90;;;;;;5125822;27;20563;-71
2022/12/06 10:35:43;;;;;;;7.95;3.22;;;5.00;99.90;;;;;;5091690;28;20104;-71
2022/12/06 10:38:46;;;;;;;8.93;3.28;;;5.00;99.90;;;;;;5090942;28;20501;-72
2022/12/06 10:41:21;;;;;;;6.53;2.97;;;5.10;99.90;;;;;;5091196;28;20418;-71
2022/12/06 10:43:47;;;;;;;9.15;3.50;;;5.30;99.90;;;;;;5092719;28;20036;-71
2022/12/06 10:49:21;;;;;;;6.18;3.25;;;5.50;99.90;;;;;;5125422;27;20055;-72
2022/12/06 10:51:53;;;;;;;6.40;3.53;;;5.70;99.90;;;;;;5091162;28;20058;-72
2022/12/06 10:54:31;;;;;;;4.95;3.00;;;5.50;99.90;;;;;;5090929;28;20101;-71
2022/12/06 10:57:03;;;;;;;6.95;3.08;;;5.50;99.90;;;;;;5125372;27;20142;-73
2022/12/06 10:59:35;;;;;;;5.30;2.92;;;5.70;99.90;;;;;;5125637;27;20082;-75
2022/12/06 11:02:27;;;;;;;8.32;3.15;;;5.50;99.90;;;;;;5091023;28;20035;-76
2022/12/06 11:04:56;;;;;;;6.70;3.08;;;5.70;99.90;;;;;;5091178;28;20040;-76
2022/12/06 11:07:34;;;;;;;5.53;2.95;;;5.90;99.90;;;;;;5074416;28;20036;-76
2022/12/06 11:10:00;;;;;;;5.40;3.47;;;5.60;99.90;;;;;;5125428;27;20046;-76
2022/12/06 11:12:32;;;;;;;5.82;3.00;;;5.90;99.90;;;;;;5124044;27;20097;-76
2022/12/06 11:15:07;;;;;;;7.32;2.97;;;5.80;99.90;;;;;;5091233;28;20113;-76
2022/12/06 11:17:36;;;;;;;5.28;2.92;;;6.10;99.90;;;;;;5125348;27;20097;-76
2022/12/06 11:20:23;;;;;;;7.07;3.47;;;6.00;99.90;;;;;;5073905;28;20071;-76
2022/12/06 11:23:04;;;;;;;4.30;2.92;;;6.20;99.90;;;;;;5073487;28;20043;-76
2022/12/06 11:25:42;;;;;;;5.47;2.53;;;6.00;99.90;;;;;;5090769;28;20463;-76
2022/12/06 11:28:37;;;;;;;6.63;2.80;;;6.30;99.90;;;;;;5091125;28;20028;-76
2022/12/06 11:31:45;;;;;;;4.97;3.20;;;6.20;99.90;;;;;;5124771;27;20115;-76
2022/12/06 11:34:31;;;;;;;5.90;2.92;;;6.10;99.90;;;;;;5090215;28;20044;-76
2022/12/06 11:36:58;;;;;;;3.38;2.42;;;6.10;99.90;;;;;;5090684;28;20080;-76
2022/12/06 11:39:24;;;;;;;3.00;2.20;;;5.90;99.90;;;;;;5090821;28;20044;-76
2022/12/06 11:41:54;;;;;;;3.90;2.25;;;6.00;99.90;;;;;;5090342;28;20043;-76
2022/12/06 11:44:24;;;;;;;3.50;1.90;;;6.10;99.90;;;;;;5124346;27;20040;-75
2022/12/06 11:46:59;;;;;;;7.25;2.65;;;6.00;99.90;;;;;;5090929;28;20546;-75
2022/12/06 11:49:35;;;;;;;3.40;2.53;;;6.10;99.90;;;;;;5090627;28;20040;-76
2022/12/06 11:52:12;;;;;;;9.20;2.35;;;6.20;99.90;;;;;;5073574;28;20048;-76
2022/12/06 11:54:47;;;;;;;4.32;2.40;;;6.00;99.90;;;;;;5073474;28;20407;-76
2022/12/06 11:57:54;;;;;;;5.60;2.35;;;6.00;99.90;;;;;;5124623;28;20051;-76
2022/12/06 12:00:22;;;;;;;3.65;2.17;;;5.90;99.90;;;;;;5044287;28;20048;-76
2022/12/06 12:02:51;;;;;;;4.47;2.03;;;6.00;99.90;;;;;;5090239;28;20085;-76
2022/12/06 12:05:21;;;;;;;3.97;1.65;;;6.00;99.90;;;;;;5107312;28;20036;-76
2022/12/06 12:07:55;;;;;;;4.03;1.70;;;6.10;99.90;;;;;;5124376;28;20044;-76
2022/12/06 12:10:26;;;;;;;3.35;1.90;;;6.10;99.90;;;;;;5090654;28;20256;-78
2022/12/06 12:15:46;;;;;;;3.13;1.80;;;6.20;99.90;;;;;;5124530;28;20052;-78
2022/12/06 12:18:25;;;;;;;5.43;1.70;;;6.10;99.90;;;;;;5090429;28;20123;-78
2022/12/06 12:20:53;;;;;;;4.85;2.20;;;6.10;99.90;;;;;;5124273;28;20169;-76
2022/12/06 12:23:24;;;;;;;3.50;2.25;;;6.10;99.90;;;;;;5075692;28;20044;-76
2022/12/06 12:26:00;;;;;;;4.55;2.28;;;6.00;99.90;;;;;;5077309;28;20032;-77
2022/12/06 12:28:29;;;;;;;2.70;2.25;;;6.00;99.90;;;;;;5077263;28;20084;-77
2022/12/06 12:30:57;;;;;;;3.25;2.38;;;6.10;99.90;;;;;;5093955;28;20050;-76
2022/12/06 12:33:24;;;;;;;3.60;2.40;;;6.10;99.90;;;;;;5135300;27;20512;-76
2022/12/06 12:35:52;;;;;;;5.63;2.92;;;6.50;99.90;;;;;;5088831;28;20035;-76
2022/12/06 12:38:26;;;;;;;4.70;2.78;;;6.30;99.90;;;;;;5105886;28;20047;-76
2022/12/06 12:40:56;;;;;;;6.63;3.10;;;6.40;99.90;;;;;;5111206;28;20062;-76
2022/12/06 12:43:25;;;;;;;3.22;2.28;;;6.70;99.90;;;;;;5105371;28;20040;-76
2022/12/06 12:46:08;;;;;;;3.83;1.95;;;6.70;99.90;;;;;;5093120;28;20043;-75
2022/12/06 12:48:38;;;;;;;4.25;1.90;;;6.70;99.90;;;;;;5114407;28;20028;-76
2022/12/06 12:51:19;;;;;;;3.83;2.00;;;6.60;99.90;;;;;;5097208;28;20180;-77
2022/12/06 12:53:44;;;;;;;4.55;2.47;;;6.70;99.90;;;;;;5113830;28;20126;-76
2022/12/06 12:56:11;;;;;;;4.65;2.22;;;6.70;99.90;;;;;;5097133;28;20181;-76
2022/12/06 12:58:37;;;;;;;4.75;2.03;;;6.70;99.90;;;;;;5115223;28;20077;-76
2022/12/06 13:01:28;;;;;;;5.22;2.45;;;6.90;99.90;;;;;;5115216;28;20574;-76
2022/12/06 13:04:01;;;;;;;3.70;2.30;;;6.80;99.90;;;;;;5105262;28;20044;-76
2022/12/06 13:06:56;;;;;;;4.30;2.28;;;6.80;99.90;;;;;;5113751;28;20036;-76
2022/12/06 13:09:57;;;;;;;4.45;1.95;;;6.90;99.90;;;;;;5113998;28;20035;-76
2022/12/06 13:12:42;;;;;;;4.43;2.15;;;6.80;99.90;;;;;;5113672;28;20497;-76
2022/12/06 13:15:33;;;;;;;2.90;1.98;;;6.80;99.90;;;;;;5113859;28;20397;-76
2022/12/06 13:18:28;;;;;;;3.92;1.90;;;6.90;99.90;;;;;;5113550;28;20123;-76
2022/12/06 13:20:57;;;;;;;8.50;2.72;;;6.80;99.90;;;;;;5113531;28;20405;-75
2022/12/06 13:23:27;;;;;;;3.83;1.98;;;6.90;99.90;;;;;;5096260;28;20046;-75
2022/12/06 13:26:32;;;;;;;6.40;2.55;;;6.80;99.90;;;;;;5113802;28;20077;-76
2022/12/06 13:29:22;;;;;;;4.40;2.20;;;7.00;99.90;;;;;;5096546;28;20044;-76
2022/12/06 13:31:50;;;;;;;3.63;1.95;;;6.90;99.90;;;;;;5113319;28;20131;-76
2022/12/06 13:34:25;;;;;;;5.13;2.40;;;6.80;99.90;;;;;;5112585;28;20577;-76
2022/12/06 13:36:51;;;;;;;3.63;2.00;;;6.80;99.90;;;;;;5113514;28;20079;-76
2022/12/06 13:39:32;;;;;;;4.75;1.65;;;6.90;99.90;;;;;;5113071;28;20047;-76
2022/12/06 13:42:17;;;;;;;3.53;1.73;;;6.90;99.90;;;;;;5112812;28;20409;-76
2022/12/06 13:44:48;;;;;;;3.42;2.00;;;6.70;99.90;;;;;;5112969;28;20046;-77
2022/12/06 13:47:26;;;;;;;4.45;1.90;;;6.90;99.90;;;;;;5112885;28;20040;-77
2022/12/06 13:49:52;;;;;;;4.68;2.05;;;6.80;99.90;;;;;;5112931;28;20042;-76
2022/12/06 13:52:46;;;;;;;3.13;1.65;;;6.70;99.90;;;;;;5105585;28;20063;-76
2022/12/06 13:55:24;;;;;;;3.65;2.15;;;6.80;99.90;;;;;;5112001;28;20181;-76
2022/12/06 13:57:58;;;;;;;4.50;2.17;;;6.60;99.90;;;;;;5095857;28;20051;-76